Allenhurst, New Jersey
Current Conditions -  °F | °C
As of 1:35 AM on Thursday 23 Oct 2014 (Local Time) from KBLM Reporting Station
Overcast Overcast  
Wind Chill: 52°   Ceiling: 1600
Heat Index: 52°   Visibility: 8mi
Dew Point: 45°   Wind: 17mph
Humidity: 76%   Direction: 340°NNW
Pressure: 29.67"   Gusts: 23mph
Location:  40.24°N, 74°W
Report Text: KBLM 230535Z AUTO 34015G20KT 8SM FEW011 BKN016 OVC023 11/07 A2967 RMK AO1 P0002
Loading
Personal Weather Stations






























Interactive Weather Map
Tropical Storm Tracking
New forecast layout! Learn more

10-Day Weather Forecast

Advertisements
Track Severe Weather on mobile